Time;durP1;ratioP1;P1;durP2;ratioP2;P2;SDS_P1;SDS_P2;PMS_P1;PMS_P2;Temp;Humidity;BMP_temperature;BMP_pressure;BME280_temperature;BME280_humidity;BME280_pressure;Samples;Min_cycle;Max_cycle;Signal;HPM_P1;HPM_P2
2023/07/09 00:01:54;;;;;;;8.10;6.28;;;;;;;22.81;55.20;101519.84;4994983;28;20398;-84
2023/07/09 00:04:20;;;;;;;7.25;6.20;;;;;;;22.69;55.21;101521.97;5029956;28;20014;-84
2023/07/09 00:06:45;;;;;;;9.02;6.38;;;;;;;22.68;55.42;101517.56;5028951;28;20418;-84
2023/07/09 00:09:15;;;;;;;8.63;6.10;;;;;;;22.51;56.00;101523.19;5009918;28;20030;-84
2023/07/09 00:11:42;;;;;;;8.80;6.30;;;;;;;22.42;56.07;101522.81;5028141;28;20091;-84
2023/07/09 00:14:09;;;;;;;8.32;5.88;;;;;;;22.32;56.41;101518.06;5029331;28;20345;-84
2023/07/09 00:16:34;;;;;;;9.32;6.90;;;;;;;22.43;56.40;101518.19;5027670;28;20025;-84
2023/07/09 00:19:19;;;;;;;11.48;8.00;;;;;;;22.53;55.85;101513.63;5027343;28;20029;-83
2023/07/09 00:21:47;;;;;;;13.80;8.00;;;;;;;22.58;55.77;101525.72;5030115;28;20481;-84
2023/07/09 00:24:12;;;;;;;14.23;7.10;;;;;;;22.65;55.33;101523.56;5028722;28;20029;-83
2023/07/09 00:26:38;;;;;;;9.57;6.38;;;;;;;22.75;54.97;101520.94;5028822;27;20040;-84
2023/07/09 00:29:04;;;;;;;8.95;5.97;;;;;;;22.83;54.92;101522.34;5042286;28;20017;-83
2023/07/09 00:31:29;;;;;;;11.10;6.20;;;;;;;22.85;54.90;101525.66;5034072;27;20045;-84
2023/07/09 00:33:55;;;;;;;8.18;6.07;;;;;;;22.88;54.81;101524.31;5031755;28;20033;-83
2023/07/09 00:36:28;;;;;;;10.05;6.00;;;;;;;22.83;54.98;101523.16;5030269;28;20029;-83
2023/07/09 00:38:54;;;;;;;8.23;5.85;;;;;;;22.76;55.23;101519.00;4994086;28;20049;-83
2023/07/09 00:41:21;;;;;;;8.98;6.57;;;;;;;22.65;55.36;101512.59;5028114;28;20078;-83
2023/07/09 00:43:51;;;;;;;9.25;6.28;;;;;;;22.69;55.49;101516.47;5027844;28;20383;-83
2023/07/09 00:46:19;;;;;;;8.38;6.45;;;;;;;22.69;55.61;101519.22;5028428;28;20056;-83
2023/07/09 00:48:48;;;;;;;7.38;5.63;;;;;;;22.69;55.38;101521.97;5030550;28;20039;-85
2023/07/09 00:51:15;;;;;;;8.65;5.93;;;;;;;22.61;55.66;101522.44;5026222;28;20033;-83
2023/07/09 00:53:45;;;;;;;8.10;6.30;;;;;;;22.59;55.96;101522.72;5006247;28;20029;-83
2023/07/09 00:56:14;;;;;;;10.25;6.03;;;;;;;22.61;55.59;101519.69;5019519;28;20029;-83
2023/07/09 00:58:40;;;;;;;8.23;5.85;;;;;;;22.61;55.79;101514.19;5010715;28;20108;-83
2023/07/09 01:01:09;;;;;;;14.60;6.47;;;;;;;22.54;56.11;101520.75;5024179;28;20026;-83
2023/07/09 01:03:35;;;;;;;8.63;5.55;;;;;;;22.62;55.87;101511.22;5007134;28;20037;-83
2023/07/09 01:06:05;;;;;;;7.20;5.30;;;;;;;22.52;56.20;101519.34;5026373;28;20383;-83
2023/07/09 01:08:31;;;;;;;10.25;6.15;;;;;;;22.38;56.43;101527.16;5027846;28;20021;-83
2023/07/09 01:10:58;;;;;;;10.43;6.22;;;;;;;22.21;56.96;101528.13;5006707;28;20039;-83
2023/07/09 01:13:26;;;;;;;8.23;6.20;;;;;;;22.01;57.88;101527.91;5026020;28;20026;-84
2023/07/09 01:15:51;;;;;;;11.45;6.47;;;;;;;21.98;57.90;101531.16;5009191;28;20036;-83
2023/07/09 01:18:17;;;;;;;7.43;5.97;;;;;;;21.84;58.20;101531.56;5010384;28;20033;-83
2023/07/09 01:20:43;;;;;;;8.27;5.95;;;;;;;21.74;58.50;101534.16;5025870;28;20037;-83
2023/07/09 01:23:09;;;;;;;11.70;6.35;;;;;;;21.62;58.96;101537.06;5026716;28;20034;-83
2023/07/09 01:25:36;;;;;;;7.95;6.00;;;;;;;21.52;59.57;101540.47;5025865;27;20074;-83
2023/07/09 01:28:02;;;;;;;8.80;6.28;;;;;;;21.42;60.07;101537.56;4993307;28;20022;-83
2023/07/09 01:30:36;;;;;;;12.20;6.30;;;;;;;21.33;60.23;101538.03;5028860;28;20033;-83
2023/07/09 01:33:01;;;;;;;8.82;6.53;;;;;;;21.26;60.71;101539.28;4993629;28;20025;-83
2023/07/09 01:35:28;;;;;;;9.60;6.15;;;;;;;21.17;60.60;101536.97;5027052;27;20060;-83
2023/07/09 01:37:53;;;;;;;9.05;6.65;;;;;;;21.10;61.52;101546.44;5027975;28;20033;-83
2023/07/09 01:40:23;;;;;;;8.57;6.82;;;;;;;21.00;61.79;101538.91;5024692;27;20037;-83
2023/07/09 01:42:48;;;;;;;10.50;6.88;;;;;;;20.96;61.99;101535.84;5020116;28;20029;-83
2023/07/09 01:45:15;;;;;;;10.02;6.85;;;;;;;20.90;62.03;101536.84;5027294;28;20034;-83
2023/07/09 01:47:40;;;;;;;8.27;6.38;;;;;;;20.82;62.36;101531.78;5026582;28;20029;-83
2023/07/09 01:50:09;;;;;;;11.77;7.57;;;;;;;20.72;63.52;101533.25;5026606;28;20025;-83
2023/07/09 01:52:35;;;;;;;11.00;7.00;;;;;;;20.67;63.41;101527.69;5027010;28;20533;-83
2023/07/09 01:55:00;;;;;;;11.13;6.65;;;;;;;20.85;63.77;101537.59;5004347;28;20095;-82
2023/07/09 01:57:32;;;;;;;12.80;7.30;;;;;;;20.93;64.53;101543.69;5046695;28;20093;-84
2023/07/09 01:59:59;;;;;;;12.02;7.70;;;;;;;20.98;63.56;101541.91;5045205;28;20033;-84
2023/07/09 02:02:25;;;;;;;11.18;6.90;;;;;;;21.00;63.17;101539.72;5014474;28;20032;-84
2023/07/09 02:04:54;;;;;;;11.07;7.20;;;;;;;21.11;62.16;101534.41;5031273;28;20396;-84
2023/07/09 02:07:20;;;;;;;9.48;7.25;;;;;;;21.00;63.25;101536.97;5024266;28;20029;-84
2023/07/09 02:09:45;;;;;;;10.18;7.47;;;;;;;20.86;63.45;101535.66;5028416;28;20034;-84
2023/07/09 02:12:11;;;;;;;10.88;7.75;;;;;;;20.71;63.90;101528.84;5027148;28;20038;-84
2023/07/09 02:14:37;;;;;;;11.35;7.43;;;;;;;20.60;64.48;101527.03;5028807;28;20570;-84
2023/07/09 02:17:04;;;;;;;13.27;7.60;;;;;;;20.48;64.52;101529.84;5026774;28;20051;-84
2023/07/09 02:19:30;;;;;;;9.82;7.38;;;;;;;20.38;64.76;101527.75;5027074;28;20059;-84
2023/07/09 02:21:56;;;;;;;9.27;7.28;;;;;;;20.29;65.31;101537.44;5027002;28;20477;-84
2023/07/09 02:24:24;;;;;;;10.18;7.63;;;;;;;20.23;65.31;101533.75;5025690;28;20091;-83
2023/07/09 02:26:51;;;;;;;9.75;8.10;;;;;;;20.18;65.63;101533.69;5027467;28;20062;-83
2023/07/09 02:29:16;;;;;;;11.38;7.90;;;;;;;20.12;66.24;101534.66;5023259;28;20049;-84
2023/07/09 02:31:42;;;;;;;10.38;7.50;;;;;;;20.07;66.24;101529.94;5026821;28;20030;-84
2023/07/09 02:34:09;;;;;;;12.23;8.15;;;;;;;20.00;66.69;101529.22;5025760;28;20406;-82
2023/07/09 02:36:34;;;;;;;11.13;7.65;;;;;;;19.95;66.94;101531.84;5026663;28;20026;-84
2023/07/09 02:38:59;;;;;;;10.40;7.00;;;;;;;19.91;67.09;101538.91;5027990;28;20025;-84
2023/07/09 02:41:25;;;;;;;10.25;7.38;;;;;;;19.85;67.44;101538.78;5027621;28;20097;-84
2023/07/09 02:43:50;;;;;;;11.13;7.60;;;;;;;19.79;67.88;101537.00;5027450;28;20038;-84
2023/07/09 02:46:15;;;;;;;11.57;7.47;;;;;;;19.73;68.11;101537.97;5009835;28;20026;-84
2023/07/09 02:48:41;;;;;;;13.02;7.75;;;;;;;19.69;68.23;101547.72;5027434;28;20428;-84
2023/07/09 02:51:06;;;;;;;10.73;7.57;;;;;;;19.66;68.39;101550.94;5028067;28;20430;-84
2023/07/09 02:53:32;;;;;;;9.57;7.78;;;;;;;19.62;68.73;101561.53;5089079;23;20484;-84
2023/07/09 02:55:57;;;;;;;10.82;7.88;;;;;;;19.57;68.78;101558.66;5111460;28;20035;-84
2023/07/09 02:58:22;;;;;;;9.90;8.38;;;;;;;19.52;69.16;101553.94;5111289;28;20475;-80
2023/07/09 03:00:54;;;;;;;8.70;7.65;;;;;;;19.51;69.17;101565.06;5110743;28;20031;-80
2023/07/09 03:03:20;;;;;;;11.32;7.97;;;;;;;19.48;69.17;101557.41;5101855;28;20026;-80
2023/07/09 03:05:46;;;;;;;12.45;8.65;;;;;;;19.46;69.68;101554.88;5107024;28;20042;-80
2023/07/09 03:08:12;;;;;;;11.80;9.00;;;;;;;19.43;69.96;101560.00;5094938;28;20027;-80
2023/07/09 03:10:37;;;;;;;11.65;8.57;;;;;;;19.38;69.86;101564.28;5108832;28;20119;-81
2023/07/09 03:13:03;;;;;;;13.27;8.93;;;;;;;19.35;70.10;101561.19;5110173;28;20057;-79
2023/07/09 03:15:28;;;;;;;12.38;8.77;;;;;;;19.31;70.23;101565.47;5109575;28;20465;-81
2023/07/09 03:17:53;;;;;;;11.27;9.10;;;;;;;19.29;70.45;101562.13;5109065;28;20391;-79
2023/07/09 03:20:19;;;;;;;9.73;7.65;;;;;;;19.29;70.04;101562.13;5106168;28;20072;-78
2023/07/09 03:22:44;;;;;;;10.50;8.00;;;;;;;19.27;70.35;101565.13;5106949;28;20129;-79
2023/07/09 03:25:09;;;;;;;10.57;8.13;;;;;;;19.26;70.35;101568.91;5108787;28;20023;-79
2023/07/09 03:27:35;;;;;;;12.35;8.57;;;;;;;19.24;70.53;101560.13;5109562;28;20036;-78
2023/07/09 03:30:00;;;;;;;10.98;8.75;;;;;;;19.24;70.94;101565.59;5113840;28;20027;-78
2023/07/09 03:32:26;;;;;;;10.85;8.20;;;;;;;19.22;71.03;101565.00;5112165;28;20032;-78
2023/07/09 03:34:53;;;;;;;10.27;7.80;;;;;;;19.21;71.17;101560.59;5110932;28;20039;-78
2023/07/09 03:37:18;;;;;;;11.65;8.30;;;;;;;19.22;71.27;101571.31;5112450;28;20130;-78
2023/07/09 03:39:45;;;;;;;12.45;8.52;;;;;;;19.19;71.54;101560.84;5113024;28;20026;-79
2023/07/09 03:42:10;;;;;;;12.23;8.00;;;;;;;19.23;70.78;101572.97;5112754;28;20060;-79
2023/07/09 03:44:36;;;;;;;11.77;8.93;;;;;;;19.30;70.86;101574.72;5113324;28;20032;-78
2023/07/09 03:47:01;;;;;;;12.38;8.98;;;;;;;19.30;71.74;101569.25;5111985;28;20028;-78
2023/07/09 03:49:27;;;;;;;12.30;8.10;;;;;;;19.29;71.60;101573.06;5111252;28;20027;-78
2023/07/09 03:51:52;;;;;;;12.82;8.40;;;;;;;19.32;71.75;101578.06;5111032;28;20035;-79
2023/07/09 03:54:18;;;;;;;10.88;8.55;;;;;;;19.32;72.15;101575.31;5111961;28;20051;-78
2023/07/09 03:56:44;;;;;;;10.50;8.10;;;;;;;19.31;71.68;101566.31;5113382;28;20024;-79
2023/07/09 03:59:09;;;;;;;11.75;8.68;;;;;;;19.33;71.48;101568.78;5114138;28;20039;-80
2023/07/09 04:01:35;;;;;;;11.70;8.75;;;;;;;19.42;71.07;101583.72;5112094;28;20023;-79
2023/07/09 04:04:06;;;;;;;13.90;8.07;;;;;;;19.45;70.72;101576.97;5113756;28;20118;-79
2023/07/09 04:06:31;;;;;;;14.05;8.80;;;;;;;19.39;71.56;101578.78;5107261;28;20496;-79
2023/07/09 04:08:57;;;;;;;13.50;9.35;;;;;;;19.46;71.26;101573.19;5112193;28;20031;-78
2023/07/09 04:11:22;;;;;;;12.00;9.00;;;;;;;19.50;70.97;101577.91;5114191;28;20028;-78
2023/07/09 04:13:48;;;;;;;15.40;10.13;;;;;;;19.52;70.57;101572.22;5093275;28;20051;-80
2023/07/09 04:16:13;;;;;;;12.77;9.13;;;;;;;19.61;70.40;101578.13;5111469;28;20465;-80
2023/07/09 04:18:38;;;;;;;11.65;9.18;;;;;;;19.69;69.91;101577.78;5111681;28;20027;-78
2023/07/09 04:21:04;;;;;;;11.70;9.30;;;;;;;19.79;69.76;101577.97;5109705;28;20035;-81
2023/07/09 04:23:29;;;;;;;13.57;9.60;;;;;;;19.81;69.64;101584.03;5112072;28;20031;-78
2023/07/09 04:25:55;;;;;;;15.45;10.10;;;;;;;19.93;69.27;101578.56;5113412;28;20493;-78
2023/07/09 04:28:20;;;;;;;11.88;9.98;;;;;;;19.99;68.63;101587.69;5113817;28;20030;-78
2023/07/09 04:30:50;;;;;;;12.20;9.57;;;;;;;20.12;68.34;101587.41;5111386;28;20391;-78
2023/07/09 04:33:17;;;;;;;13.48;9.90;;;;;;;20.29;67.72;101578.47;5112780;28;20031;-78
2023/07/09 04:35:44;;;;;;;11.15;9.35;;;;;;;20.50;67.42;101587.00;5112099;28;20116;-78
2023/07/09 04:38:09;;;;;;;10.20;8.75;;;;;;;20.74;66.97;101583.06;5112847;28;20047;-79
2023/07/09 04:40:35;;;;;;;12.80;9.55;;;;;;;21.03;66.18;101591.22;5111578;28;20024;-79
2023/07/09 04:43:01;;;;;;;11.75;9.43;;;;;;;21.40;63.96;101589.03;5112064;28;20024;-79
2023/07/09 04:45:26;;;;;;;12.30;9.15;;;;;;;22.02;62.25;101596.16;5106524;28;20237;-78
2023/07/09 04:47:52;;;;;;;13.93;8.93;;;;;;;22.51;60.26;101594.50;5111058;28;20015;-78
2023/07/09 04:50:17;;;;;;;11.00;9.40;;;;;;;22.61;59.63;101591.88;5111634;28;20028;-78
2023/07/09 04:52:43;;;;;;;13.73;9.40;;;;;;;22.92;58.96;101602.31;5112171;28;20054;-79
2023/07/09 04:55:08;;;;;;;12.40;9.88;;;;;;;23.06;58.28;101591.69;5111285;28;20028;-79
2023/07/09 04:57:34;;;;;;;17.83;9.98;;;;;;;23.29;57.36;101602.31;5111622;28;20019;-79
2023/07/09 04:59:59;;;;;;;13.43;9.52;;;;;;;23.21;57.82;101600.06;5112801;28;20051;-79
2023/07/09 05:02:25;;;;;;;17.27;9.50;;;;;;;23.13;58.15;101593.09;5110069;28;20100;-81
2023/07/09 05:04:50;;;;;;;14.15;9.73;;;;;;;23.11;58.42;101599.97;5105156;28;20491;-82
2023/07/09 05:07:16;;;;;;;13.00;9.52;;;;;;;23.44;57.52;101595.25;5111657;28;20026;-82
2023/07/09 05:09:41;;;;;;;12.85;9.60;;;;;;;23.91;55.94;101597.16;5110019;28;20036;-83
2023/07/09 05:12:08;;;;;;;13.82;8.82;;;;;;;24.43;54.47;101599.22;5110961;28;20024;-84
2023/07/09 05:14:33;;;;;;;12.52;9.77;;;;;;;24.35;54.51;101595.09;5112312;28;20020;-84
2023/07/09 05:16:59;;;;;;;10.63;8.57;;;;;;;24.67;54.63;101603.13;5109438;28;20020;-83
2023/07/09 05:19:24;;;;;;;11.55;8.93;;;;;;;25.05;53.80;101607.56;5109485;28;20027;-85
2023/07/09 05:21:49;;;;;;;11.68;8.65;;;;;;;25.25;53.22;101603.94;5111445;28;20028;-80
2023/07/09 05:24:15;;;;;;;12.98;8.65;;;;;;;25.80;52.11;101600.50;5110731;28;20035;-79
2023/07/09 05:26:40;;;;;;;11.13;7.97;;;;;;;26.01;50.77;101596.56;5112290;28;20459;-80
2023/07/09 05:29:06;;;;;;;11.73;8.73;;;;;;;26.11;50.91;101595.72;5112928;28;20046;-82
2023/07/09 05:31:32;;;;;;;11.93;8.75;;;;;;;26.23;50.66;101598.09;5109738;28;20023;-80
2023/07/09 05:33:59;;;;;;;13.23;8.65;;;;;;;26.22;50.24;101592.88;5108012;28;20027;-81
2023/07/09 05:36:25;;;;;;;11.25;8.07;;;;;;;26.60;49.52;101596.75;5107759;28;20080;-81
2023/07/09 05:38:51;;;;;;;9.80;8.25;;;;;;;26.86;48.61;101593.81;5111860;28;20478;-80
2023/07/09 05:41:17;;;;;;;11.52;8.40;;;;;;;27.07;47.81;101605.50;5116522;28;20023;-79
2023/07/09 05:43:44;;;;;;;9.52;7.13;;;;;;;27.77;46.34;101608.09;5122518;28;20039;-82
2023/07/09 05:46:09;;;;;;;10.35;7.25;;;;;;;28.09;45.47;101606.56;5111138;28;20019;-81
2023/07/09 05:48:35;;;;;;;10.85;7.25;;;;;;;28.54;44.30;101603.44;5111219;28;20066;-82
2023/07/09 05:51:00;;;;;;;10.00;6.60;;;;;;;28.45;45.08;101603.28;5108597;28;20019;-81
2023/07/09 05:53:25;;;;;;;13.57;7.75;;;;;;;28.67;44.31;101601.84;5108380;28;20048;-81
2023/07/09 05:55:54;;;;;;;10.90;7.53;;;;;;;29.19;43.45;101616.50;5108866;28;20060;-81
2023/07/09 05:58:20;;;;;;;11.45;7.60;;;;;;;29.26;42.93;101610.53;5101265;28;20050;-81
2023/07/09 06:00:45;;;;;;;10.60;7.80;;;;;;;28.92;42.97;101614.47;5107144;28;20480;-81
2023/07/09 06:03:11;;;;;;;10.93;6.70;;;;;;;29.78;41.58;101618.72;5108108;28;20026;-81
2023/07/09 06:05:36;;;;;;;10.25;8.05;;;;;;;29.88;41.14;101626.00;5110417;28;20096;-82
2023/07/09 06:08:05;;;;;;;10.90;7.65;;;;;;;29.17;42.77;101623.47;5107594;28;20018;-81
2023/07/09 06:10:30;;;;;;;13.20;8.05;;;;;;;29.12;43.70;101613.31;5109889;28;20024;-83
2023/07/09 06:12:58;;;;;;;9.60;7.10;;;;;;;29.70;41.65;101613.88;5108562;28;20035;-82
2023/07/09 06:15:24;;;;;;;7.72;6.55;;;;;;;30.26;40.99;101624.91;5107336;28;20544;-82
2023/07/09 06:17:50;;;;;;;10.57;6.97;;;;;;;30.08;41.61;101621.97;5119406;28;20580;-84
2023/07/09 06:20:15;;;;;;;13.45;7.05;;;;;;;30.48;41.33;101626.09;5113946;28;20027;-84
2023/07/09 06:22:41;;;;;;;10.35;7.03;;;;;;;31.09;40.29;101622.91;5109100;28;20031;-84
2023/07/09 06:25:06;;;;;;;10.90;6.60;;;;;;;31.95;38.35;101633.94;5110041;28;20109;-84
2023/07/09 06:27:32;;;;;;;12.75;6.90;;;;;;;31.60;38.36;101620.72;5110707;28;20231;-84
2023/07/09 06:29:57;;;;;;;12.48;7.00;;;;;;;31.65;38.34;101628.94;5108743;28;20059;-84
2023/07/09 06:32:23;;;;;;;9.93;6.78;;;;;;;31.67;38.84;101625.81;5109894;28;20260;-84
2023/07/09 06:34:48;;;;;;;10.80;6.63;;;;;;;32.01;38.00;101629.84;5110704;28;20481;-84
2023/07/09 06:37:14;;;;;;;14.68;7.68;;;;;;;31.63;38.40;101628.41;5108132;28;20023;-84
2023/07/09 06:39:40;;;;;;;11.57;7.15;;;;;;;32.23;38.11;101626.09;5109471;28;20397;-85
2023/07/09 06:42:05;;;;;;;10.88;7.03;;;;;;;33.18;35.82;101633.91;5111361;28;20077;-85
2023/07/09 06:44:31;;;;;;;12.20;7.30;;;;;;;32.93;36.68;101630.84;5108656;28;20513;-85
2023/07/09 06:46:56;;;;;;;9.48;7.03;;;;;;;32.68;36.57;101629.72;5109476;28;20032;-85
2023/07/09 06:49:22;;;;;;;12.13;6.78;;;;;;;33.14;36.53;101635.72;5110454;28;20475;-85
2023/07/09 06:51:47;;;;;;;11.25;7.40;;;;;;;33.21;35.93;101639.63;5109623;28;20044;-85
2023/07/09 06:54:15;;;;;;;11.35;7.20;;;;;;;33.10;35.67;101630.81;5109385;28;20040;-85
2023/07/09 06:56:40;;;;;;;12.43;6.72;;;;;;;32.80;36.48;101633.47;5110263;28;20462;-85
2023/07/09 06:59:09;;;;;;;11.27;7.30;;;;;;;33.18;35.92;101636.72;5108874;28;20475;-85
2023/07/09 07:01:35;;;;;;;9.88;7.05;;;;;;;33.27;36.01;101640.28;5110702;28;20015;-85
2023/07/09 07:04:01;;;;;;;11.07;7.22;;;;;;;32.79;36.61;101633.78;5113076;28;20026;-85
2023/07/09 07:06:26;;;;;;;12.10;7.07;;;;;;;33.88;34.93;101644.78;5170622;22;20059;-85
2023/07/09 07:08:52;;;;;;;14.45;7.90;;;;;;;34.53;33.77;101644.50;5113719;28;20083;-85
2023/07/09 07:11:17;;;;;;;13.35;7.07;;;;;;;34.71;32.90;101638.75;5113148;28;20027;-85
2023/07/09 07:13:43;;;;;;;12.30;7.18;;;;;;;34.95;32.84;101638.03;5113249;28;20024;-85
2023/07/09 07:16:09;;;;;;;11.45;6.88;;;;;;;35.19;32.00;101640.03;5106865;28;20035;-85
2023/07/09 07:18:35;;;;;;;12.15;7.03;;;;;;;35.14;32.15;101640.25;5113085;28;20077;-85
2023/07/09 07:21:00;;;;;;;8.75;6.10;;;;;;;35.56;31.91;101646.88;5113567;28;20061;-85
2023/07/09 07:23:26;;;;;;;12.13;6.93;;;;;;;35.24;32.40;101638.19;5115263;28;20020;-85
2023/07/09 07:25:51;;;;;;;12.35;7.25;;;;;;;36.06;31.21;101634.47;5121748;28;20386;-87
2023/07/09 07:28:17;;;;;;;10.13;6.47;;;;;;;36.34;30.29;101642.09;5122231;28;20023;-85
2023/07/09 07:30:43;;;;;;;10.93;7.15;;;;;;;35.60;32.00;101642.22;5112870;28;20151;-85
2023/07/09 07:33:08;;;;;;;10.82;6.43;;;;;;;36.46;30.79;101643.25;5112766;28;20023;-86
2023/07/09 07:35:33;;;;;;;9.93;6.68;;;;;;;36.83;29.48;101638.25;5114029;28;20033;-85
2023/07/09 07:37:59;;;;;;;10.70;6.75;;;;;;;37.03;28.69;101632.78;5112486;28;20023;-85
2023/07/09 07:40:24;;;;;;;10.38;6.63;;;;;;;37.02;29.26;101631.16;5113907;28;20108;-85
2023/07/09 07:42:50;;;;;;;8.95;6.63;;;;;;;37.01;29.99;101632.34;5115425;28;20518;-85
2023/07/09 07:45:16;;;;;;;12.25;6.45;;;;;;;37.94;28.20;101627.41;5109413;28;20076;-86
2023/07/09 07:47:42;;;;;;;12.38;7.35;;;;;;;36.46;30.22;101632.03;5117559;28;20030;-85
2023/07/09 07:50:08;;;;;;;14.10;7.90;;;;;;;37.14;29.31;101630.28;5115869;28;20035;-85
2023/07/09 07:52:37;;;;;;;13.48;7.70;;;;;;;37.30;30.13;101627.47;5109127;28;20032;-86
2023/07/09 07:55:04;;;;;;;14.85;8.27;;;;;;;36.62;31.50;101624.47;5110933;28;20505;-85
2023/07/09 07:57:30;;;;;;;12.82;7.85;;;;;;;36.39;31.42;101625.00;5113861;28;20028;-85
2023/07/09 07:59:55;;;;;;;15.80;7.75;;;;;;;36.69;31.42;101626.66;5111639;28;20053;-85
2023/07/09 08:02:21;;;;;;;11.52;7.20;;;;;;;37.31;29.22;101629.91;5100032;28;20040;-85
2023/07/09 08:04:46;;;;;;;9.85;7.00;;;;;;;37.40;29.20;101623.28;5108547;28;20032;-85
2023/07/09 08:07:12;;;;;;;11.20;6.97;;;;;;;38.18;28.41;101631.13;5109504;28;20050;-85
2023/07/09 08:09:38;;;;;;;10.98;6.95;;;;;;;38.99;26.74;101629.53;5112459;28;20095;-85
2023/07/09 08:12:09;;;;;;;10.38;6.55;;;;;;;39.11;26.45;101626.50;5110309;28;20471;-86
2023/07/09 08:14:36;;;;;;;10.93;7.10;;;;;;;39.15;26.52;101617.31;5111144;28;20111;-85
2023/07/09 08:17:01;;;;;;;14.23;6.82;;;;;;;38.81;27.47;101617.91;5113957;28;20043;-85
2023/07/09 08:19:27;;;;;;;12.77;6.90;;;;;;;38.80;26.86;101622.72;5112454;28;20019;-85
2023/07/09 08:21:52;;;;;;;10.35;7.07;;;;;;;37.69;27.81;101616.38;5111691;28;20020;-86
2023/07/09 08:24:20;;;;;;;7.90;6.07;;;;;;;38.64;27.16;101613.59;5112572;28;20060;-84
2023/07/09 08:26:49;;;;;;;9.77;6.30;;;;;;;38.71;27.20;101607.28;5113476;28;20045;-84
2023/07/09 08:29:15;;;;;;;9.02;6.15;;;;;;;39.18;26.68;101610.94;5111028;28;20518;-85
2023/07/09 08:31:43;;;;;;;8.02;6.30;;;;;;;38.23;28.29;101611.13;5112541;28;20102;-85
2023/07/09 08:34:08;;;;;;;10.85;6.32;;;;;;;38.44;28.38;101602.34;5112137;28;20055;-84
2023/07/09 08:36:34;;;;;;;8.05;6.45;;;;;;;39.24;27.50;101610.22;5111476;28;20027;-85
2023/07/09 08:39:01;;;;;;;7.43;6.60;;;;;;;39.33;26.75;101611.97;5111422;28;20116;-85
2023/07/09 08:41:48;;;;;;;10.25;6.57;;;;;;;40.29;24.79;101606.09;5112868;28;20024;-85
2023/07/09 08:44:33;;;;;;;8.70;6.05;;;;;;;40.31;25.41;101598.06;5092768;28;20039;-85
2023/07/09 08:47:27;;;;;;;10.20;6.47;;;;;;;40.04;25.91;101604.97;5094082;28;20038;-84
2023/07/09 08:49:59;;;;;;;8.80;6.23;;;;;;;40.05;25.01;101612.22;5109833;28;20039;-85
2023/07/09 08:52:33;;;;;;;9.57;6.65;;;;;;;40.18;24.71;101596.69;5112127;28;20471;-85
2023/07/09 08:55:00;;;;;;;7.03;6.07;;;;;;;39.98;25.34;101608.13;5073534;28;20506;-85
2023/07/09 08:57:32;;;;;;;8.82;6.00;;;;;;;40.08;24.80;101611.44;5076536;28;20546;-85
2023/07/09 09:00:12;;;;;;;10.27;5.90;;;;;;;40.10;25.73;101609.06;5076161;28;20043;-84
2023/07/09 09:03:16;;;;;;;8.77;6.00;;;;;;;40.72;24.81;101602.16;5096897;28;20038;-85
2023/07/09 09:05:44;;;;;;;10.02;6.50;;;;;;;40.58;25.23;101600.78;5114539;28;20062;-85
2023/07/09 09:08:30;;;;;;;9.90;5.75;;;;;;;41.25;23.39;101594.53;5100160;28;20134;-85
2023/07/09 09:11:21;;;;;;;9.15;6.05;;;;;;;40.60;24.23;101598.34;5107564;28;20011;-85
2023/07/09 09:13:46;;;;;;;7.75;6.07;;;;;;;40.99;22.98;101594.31;5081209;28;20035;-84
2023/07/09 09:16:30;;;;;;;8.48;5.95;;;;;;;41.12;23.79;101591.22;5097992;28;20409;-85
2023/07/09 09:18:58;;;;;;;9.43;6.43;;;;;;;40.97;23.27;101595.91;5088459;28;20390;-85
2023/07/09 09:21:28;;;;;;;10.27;5.97;;;;;;;40.85;23.34;101595.00;5093159;28;20015;-84
2023/07/09 09:23:56;;;;;;;8.98;6.00;;;;;;;40.97;23.34;101587.44;5111634;28;20106;-85
2023/07/09 09:26:24;;;;;;;8.00;5.63;;;;;;;41.58;22.27;101587.91;5092922;28;20023;-85
2023/07/09 09:28:49;;;;;;;9.02;5.68;;;;;;;41.25;22.68;101583.25;5092646;28;20027;-84
2023/07/09 09:31:15;;;;;;;7.13;5.50;;;;;;;41.04;22.93;101579.03;5110345;28;20046;-85
2023/07/09 09:33:45;;;;;;;9.07;5.88;;;;;;;41.39;23.30;101582.53;5111649;28;20031;-85
2023/07/09 09:36:24;;;;;;;8.52;5.65;;;;;;;41.48;23.33;101580.97;5111130;28;20019;-85
2023/07/09 09:38:50;;;;;;;9.93;5.60;;;;;;;41.79;22.43;101577.91;5110736;28;20035;-85
2023/07/09 09:41:21;;;;;;;7.00;5.60;;;;;;;41.31;23.29;101581.66;5112599;28;20421;-85
2023/07/09 09:43:47;;;;;;;6.70;5.50;;;;;;;40.89;22.81;101576.09;5111618;28;20069;-86
2023/07/09 09:46:21;;;;;;;7.45;5.70;;;;;;;40.75;23.14;101581.63;5111600;28;20486;-85
2023/07/09 09:48:48;;;;;;;8.43;6.32;;;;;;;40.73;23.83;101569.91;5113436;28;20031;-86
2023/07/09 09:51:13;;;;;;;6.63;5.38;;;;;;;40.15;24.83;101567.25;5105634;28;20106;-84
2023/07/09 09:53:41;;;;;;;8.55;5.60;;;;;;;41.06;23.16;101570.97;5092998;28;20023;-85
2023/07/09 09:56:11;;;;;;;11.15;6.03;;;;;;;41.13;22.91;101571.03;5112803;28;20031;-84
2023/07/09 09:58:39;;;;;;;9.32;5.93;;;;;;;41.33;22.98;101576.44;5076988;28;20035;-84
2023/07/09 10:01:04;;;;;;;9.20;6.03;;;;;;;40.89;23.84;101566.78;5084787;28;20039;-85
2023/07/09 10:03:34;;;;;;;6.32;5.70;;;;;;;40.97;23.29;101574.13;5110932;28;20035;-85
2023/07/09 10:06:00;;;;;;;8.95;6.13;;;;;;;41.21;23.06;101575.56;5110841;28;20350;-85
2023/07/09 10:08:32;;;;;;;10.40;6.15;;;;;;;41.26;22.62;101571.53;5058075;28;20027;-84
2023/07/09 10:11:08;;;;;;;6.68;5.57;;;;;;;41.61;22.65;101564.50;5114525;28;20042;-85
2023/07/09 10:13:34;;;;;;;10.35;6.10;;;;;;;40.81;23.93;101562.31;5092132;28;20030;-84
2023/07/09 10:16:05;;;;;;;8.32;6.40;;;;;;;40.63;22.91;101571.38;5093253;28;20031;-86
2023/07/09 10:18:43;;;;;;;9.45;6.35;;;;;;;40.27;23.83;101569.00;5091644;28;20015;-86
2023/07/09 10:21:34;;;;;;;9.63;5.85;;;;;;;41.51;22.45;101573.75;5091624;28;20133;-85
2023/07/09 10:24:29;;;;;;;8.98;5.38;;;;;;;41.54;22.95;101564.50;5095814;28;20050;-86
2023/07/09 10:27:22;;;;;;;9.82;6.03;;;;;;;42.65;21.92;101574.59;5093260;28;20498;-85
2023/07/09 10:30:12;;;;;;;6.65;5.65;;;;;;;42.05;22.18;101562.69;5091911;28;20031;-84
2023/07/09 10:32:58;;;;;;;6.85;5.78;;;;;;;41.98;22.21;101557.03;5110687;28;20020;-84
2023/07/09 10:35:38;;;;;;;7.57;5.55;;;;;;;40.99;22.28;101548.31;5111004;28;20095;-85
2023/07/09 10:38:25;;;;;;;6.82;5.30;;;;;;;41.11;22.58;101544.41;5116212;28;20498;-84
2023/07/09 10:40:54;;;;;;;7.40;5.63;;;;;;;41.95;21.69;101546.53;5113936;28;20031;-85
2023/07/09 10:43:23;;;;;;;6.18;4.90;;;;;;;42.56;20.57;101545.84;5098086;28;20048;-85
2023/07/09 10:45:51;;;;;;;5.88;5.13;;;;;;;42.30;21.61;101544.16;5098455;28;20055;-84
2023/07/09 10:48:34;;;;;;;7.45;5.30;;;;;;;42.21;21.36;101541.72;5098078;28;20486;-85
2023/07/09 10:51:01;;;;;;;8.23;5.47;;;;;;;42.70;20.40;101550.72;5081489;28;20038;-85
2023/07/09 10:53:33;;;;;;;6.00;4.90;;;;;;;42.29;20.78;101549.03;5115233;28;20016;-85
2023/07/09 10:56:20;;;;;;;9.40;5.53;;;;;;;42.45;20.40;101562.03;5116804;28;20043;-85
2023/07/09 10:59:10;;;;;;;7.03;5.20;;;;;;;42.07;21.08;101565.16;5098268;28;20385;-85
2023/07/09 11:01:43;;;;;;;7.97;5.53;;;;;;;41.67;21.68;101554.47;5111067;28;20114;-85
2023/07/09 11:04:13;;;;;;;9.07;5.80;;;;;;;42.18;20.81;101540.53;5097739;28;20047;-85
2023/07/09 11:06:44;;;;;;;7.53;4.90;;;;;;;41.91;21.25;101531.53;5098409;28;20122;-84
2023/07/09 11:09:36;;;;;;;7.00;4.60;;;;;;;42.61;20.93;101536.97;5096916;27;20034;-83
2023/07/09 11:12:08;;;;;;;9.23;5.63;;;;;;;43.00;20.35;101530.50;5096907;28;20075;-86
2023/07/09 11:14:38;;;;;;;7.60;5.13;;;;;;;42.98;19.98;101527.25;5092870;28;20486;-87
2023/07/09 11:17:03;;;;;;;6.47;4.88;;;;;;;43.19;20.19;101525.63;5094681;28;20550;-86
2023/07/09 11:19:29;;;;;;;6.88;4.75;;;;;;;42.93;19.79;101522.00;5098685;28;20106;-87
2023/07/09 11:21:59;;;;;;;7.43;4.68;;;;;;;42.07;21.04;101523.53;5098849;28;20041;-87
2023/07/09 11:24:46;;;;;;;8.52;5.10;;;;;;;41.61;22.11;101510.81;5109277;28;20479;-88